createdAt,value
2024-05-09T00:00:00.179Z,1025.47
2024-05-09T00:01:09.901Z,1025.44
2024-05-09T00:02:01.208Z,1025.51
2024-05-09T00:03:00.061Z,1025.47
2024-05-09T00:03:59.856Z,1025.51
2024-05-09T00:05:01.384Z,1025.53
2024-05-09T00:06:12.190Z,1025.53
2024-05-09T00:07:00.144Z,1025.52
2024-05-09T00:07:59.171Z,1025.51
2024-05-09T00:09:01.214Z,1025.52
2024-05-09T00:09:59.756Z,1025.54
2024-05-09T00:11:16.519Z,1025.5
2024-05-09T00:12:01.401Z,1025.51
2024-05-09T00:13:01.149Z,1025.51
2024-05-09T00:14:05.469Z,1025.53
2024-05-09T00:14:59.900Z,1025.53
2024-05-09T00:16:01.259Z,1025.54
2024-05-09T00:17:00.060Z,1025.53
2024-05-09T00:17:58.942Z,1025.51
2024-05-09T00:18:59.804Z,1025.57
2024-05-09T00:20:01.419Z,1025.58
2024-05-09T00:21:01.471Z,1025.58
2024-05-09T00:22:00.237Z,1025.56
2024-05-09T00:22:58.931Z,1025.52
2024-05-09T00:23:59.691Z,1025.52
2024-05-09T00:25:01.204Z,1025.55
2024-05-09T00:26:00.014Z,1025.53
2024-05-09T00:26:58.711Z,1025.51
2024-05-09T00:28:01.240Z,1025.54
2024-05-09T00:29:00.024Z,1025.53
2024-05-09T00:29:58.683Z,1025.52
2024-05-09T00:31:01.193Z,1025.47
2024-05-09T00:32:00.076Z,1025.52
2024-05-09T00:32:59.003Z,1025.53
2024-05-09T00:33:59.829Z,1025.49
2024-05-09T00:35:01.253Z,1025.48
2024-05-09T00:36:00.008Z,1025.51
2024-05-09T00:36:58.808Z,1025.49
2024-05-09T00:38:01.436Z,1025.49
2024-05-09T00:39:01.245Z,1025.51
2024-05-09T00:40:00.054Z,1025.45
2024-05-09T00:40:58.729Z,1025.48
2024-05-09T00:42:01.207Z,1025.44
2024-05-09T00:42:59.877Z,1025.43
2024-05-09T00:44:01.248Z,1025.48
2024-05-09T00:44:59.976Z,1025.46
2024-05-09T00:45:58.764Z,1025.44
2024-05-09T00:47:01.235Z,1025.45
2024-05-09T00:48:00.631Z,1025.49
2024-05-09T00:48:59.576Z,1025.42
2024-05-09T00:50:01.259Z,1025.45
2024-05-09T00:51:00.151Z,1025.45
2024-05-09T00:51:58.892Z,1025.48
2024-05-09T00:53:01.263Z,1025.45
2024-05-09T00:54:00.053Z,1025.45
2024-05-09T00:54:58.713Z,1025.44
2024-05-09T00:56:01.295Z,1025.49
2024-05-09T00:56:59.970Z,1025.43
2024-05-09T00:57:58.675Z,1025.41
2024-05-09T00:59:01.244Z,1025.41
2024-05-09T00:59:59.985Z,1025.42
2024-05-09T01:00:58.818Z,1025.44
2024-05-09T01:02:01.342Z,1025.42
2024-05-09T01:02:59.894Z,1025.43
2024-05-09T01:03:58.884Z,1025.41
2024-05-09T01:05:01.391Z,1025.43
2024-05-09T01:06:01.285Z,1025.44
2024-05-09T01:07:00.030Z,1025.5
2024-05-09T01:07:58.772Z,1025.44
2024-05-09T01:09:01.171Z,1025.45
2024-05-09T01:09:59.963Z,1025.48
2024-05-09T01:10:58.864Z,1025.48
2024-05-09T01:12:01.413Z,1025.48
2024-05-09T01:13:01.225Z,1025.46
2024-05-09T01:14:00.009Z,1025.45
2024-05-09T01:14:58.812Z,1025.46
2024-05-09T01:16:01.294Z,1025.51
2024-05-09T01:17:00.003Z,1025.49
2024-05-09T01:17:58.988Z,1025.5
2024-05-09T01:18:59.897Z,1025.49
2024-05-09T01:19:58.707Z,1025.49
2024-05-09T01:21:01.367Z,1025.43
2024-05-09T01:22:00.025Z,1025.42
2024-05-09T01:22:58.835Z,1025.44
2024-05-09T01:24:01.216Z,1025.43
2024-05-09T01:24:59.942Z,1025.45
2024-05-09T01:25:58.731Z,1025.46
2024-05-09T01:27:03.439Z,1025.43
2024-05-09T01:28:01.183Z,1025.41
2024-05-09T01:28:59.904Z,1025.39
2024-05-09T01:29:58.648Z,1025.41
2024-05-09T01:31:01.223Z,1025.41
2024-05-09T01:32:04.799Z,1025.44
2024-05-09T01:33:00.053Z,1025.44
2024-05-09T01:33:58.813Z,1025.45
2024-05-09T01:35:01.359Z,1025.47
2024-05-09T01:36:00.118Z,1025.48
2024-05-09T01:37:07.138Z,1025.49
2024-05-09T01:38:01.346Z,1025.5
2024-05-09T01:39:00.151Z,1025.49
2024-05-09T01:39:58.915Z,1025.45
2024-05-09T01:41:01.255Z,1025.56
2024-05-09T01:42:09.668Z,1025.43
2024-05-09T01:43:00.098Z,1025.43
2024-05-09T01:43:59.333Z,1025.45
2024-05-09T01:45:00.086Z,1025.46
2024-05-09T01:45:58.763Z,1025.5
2024-05-09T01:47:13.852Z,1025.49
2024-05-09T01:48:01.975Z,1025.48
2024-05-09T01:48:59.846Z,1025.49
2024-05-09T01:50:01.500Z,1025.47
2024-05-09T01:51:01.268Z,1025.48
2024-05-09T01:52:15.149Z,1025.49
2024-05-09T01:53:00.208Z,1025.5
2024-05-09T01:53:58.902Z,1025.51
2024-05-09T01:55:04.674Z,1025.55
2024-05-09T01:56:01.229Z,1025.47
2024-05-09T01:56:59.943Z,1025.49
2024-05-09T01:57:58.676Z,1025.49
2024-05-09T01:59:01.260Z,1025.46
2024-05-09T01:59:59.992Z,1025.49
2024-05-09T02:00:58.682Z,1025.5
2024-05-09T02:02:01.566Z,1025.45
2024-05-09T02:03:01.759Z,1025.47
2024-05-09T02:04:01.570Z,1025.48
2024-05-09T02:04:59.965Z,1025.47
2024-05-09T02:05:58.974Z,1025.45
2024-05-09T02:06:59.726Z,1025.45
2024-05-09T02:08:01.375Z,1025.48
2024-05-09T02:09:00.178Z,1025.5
2024-05-09T02:09:58.914Z,1025.48
2024-05-09T02:11:01.550Z,1025.49
2024-05-09T02:12:01.488Z,1025.47
2024-05-09T02:13:01.303Z,1025.45
2024-05-09T02:14:00.304Z,1025.43
2024-05-09T02:14:59.063Z,1025.44
2024-05-09T02:15:59.760Z,1025.45
2024-05-09T02:17:01.308Z,1025.44
2024-05-09T02:18:00.201Z,1025.43
2024-05-09T02:18:59.335Z,1025.42
2024-05-09T02:20:00.265Z,1025.45
2024-05-09T02:20:59.092Z,1025.47
2024-05-09T02:21:59.818Z,1025.44
2024-05-09T02:23:01.290Z,1025.46
2024-05-09T02:24:00.052Z,1025.49
2024-05-09T02:24:59.090Z,1025.49
2024-05-09T02:25:59.844Z,1025.49
2024-05-09T02:27:02.617Z,1025.49
2024-05-09T02:28:01.232Z,1025.48
2024-05-09T02:29:00.010Z,1025.49
2024-05-09T02:29:58.751Z,1025.48
2024-05-09T02:31:01.192Z,1025.47
2024-05-09T02:32:00.102Z,1025.51
2024-05-09T02:32:59.381Z,1025.56
2024-05-09T02:34:00.351Z,1025.57
2024-05-09T02:34:59.205Z,1025.58
2024-05-09T02:36:00.130Z,1025.62
2024-05-09T02:36:58.790Z,1025.59
2024-05-09T02:38:01.519Z,1025.58
2024-05-09T02:39:00.235Z,1025.59
2024-05-09T02:39:58.899Z,1025.57
2024-05-09T02:41:01.220Z,1025.54
2024-05-09T02:41:59.942Z,1025.57
2024-05-09T02:42:58.630Z,1025.57
2024-05-09T02:44:01.328Z,1025.58
2024-05-09T02:45:00.145Z,1025.56
2024-05-09T02:45:58.944Z,1025.55
2024-05-09T02:46:59.685Z,1025.58
2024-05-09T02:48:01.962Z,1025.56
2024-05-09T02:49:01.737Z,1025.53
2024-05-09T02:50:01.265Z,1025.54
2024-05-09T02:51:00.191Z,1025.55
2024-05-09T02:51:59.000Z,1025.53
2024-05-09T02:52:59.708Z,1025.55
2024-05-09T02:54:01.210Z,1025.52
2024-05-09T02:54:59.915Z,1025.51
2024-05-09T02:56:01.277Z,1025.5
2024-05-09T02:57:01.149Z,1025.53
2024-05-09T02:57:59.853Z,1025.48
2024-05-09T02:59:01.288Z,1025.56
2024-05-09T02:59:59.975Z,1025.47
2024-05-09T03:00:58.758Z,1025.54
2024-05-09T03:02:01.423Z,1025.48
2024-05-09T03:03:01.419Z,1025.5
2024-05-09T03:04:00.330Z,1025.53
2024-05-09T03:04:59.094Z,1025.5
2024-05-09T03:05:59.806Z,1025.47
2024-05-09T03:07:01.230Z,1025.46
2024-05-09T03:08:03.429Z,1025.48
2024-05-09T03:08:59.915Z,1025.49
2024-05-09T03:10:01.208Z,1025.52
2024-05-09T03:10:59.961Z,1025.45
2024-05-09T03:11:58.834Z,1025.51
2024-05-09T03:13:05.716Z,1025.47
2024-05-09T03:14:01.644Z,1025.47
2024-05-09T03:15:01.230Z,1025.47
2024-05-09T03:15:59.994Z,1025.51
2024-05-09T03:16:58.772Z,1025.53
2024-05-09T03:18:09.540Z,1025.52
2024-05-09T03:19:01.240Z,1025.48
2024-05-09T03:20:00.140Z,1025.45
2024-05-09T03:20:58.953Z,1025.5
2024-05-09T03:21:59.688Z,1025.45
2024-05-09T03:23:11.586Z,1025.49
2024-05-09T03:24:01.183Z,1025.51
2024-05-09T03:24:59.919Z,1025.49
2024-05-09T03:26:01.391Z,1025.48
2024-05-09T03:27:00.145Z,1025.52
2024-05-09T03:28:12.938Z,1025.51
2024-05-09T03:28:59.857Z,1025.54
2024-05-09T03:30:01.215Z,1025.55
2024-05-09T03:30:59.893Z,1025.56
2024-05-09T03:32:01.393Z,1025.56
2024-05-09T03:33:15.976Z,1025.53
2024-05-09T03:33:59.883Z,1025.45
2024-05-09T03:34:58.728Z,1025.53
2024-05-09T03:36:01.236Z,1025.51
2024-05-09T03:36:59.991Z,1025.52
2024-05-09T03:37:58.739Z,1025.5
2024-05-09T03:39:01.189Z,1025.48
2024-05-09T03:40:01.204Z,1025.45
2024-05-09T03:40:59.972Z,1025.46
2024-05-09T03:41:58.695Z,1025.48
2024-05-09T03:43:01.242Z,1025.48
2024-05-09T03:44:00.026Z,1025.46
2024-05-09T03:44:58.714Z,1025.48
2024-05-09T03:46:01.207Z,1025.46
2024-05-09T03:46:59.919Z,1025.5
2024-05-09T03:47:58.958Z,1025.44
2024-05-09T03:49:01.266Z,1025.44
2024-05-09T03:49:59.840Z,1025.43
2024-05-09T03:51:01.285Z,1025.45
2024-05-09T03:51:59.969Z,1025.45
2024-05-09T03:52:58.692Z,1025.52
2024-05-09T03:54:01.160Z,1025.48
2024-05-09T03:54:59.817Z,1025.49
2024-05-09T03:56:01.327Z,1025.5
2024-05-09T03:57:00.025Z,1025.46
2024-05-09T03:57:58.845Z,1025.53
2024-05-09T03:58:59.633Z,1025.5
2024-05-09T04:00:01.167Z,1025.45
2024-05-09T04:01:00.000Z,1025.46
2024-05-09T04:01:58.835Z,1025.48
2024-05-09T04:03:01.558Z,1025.48
2024-05-09T04:04:01.291Z,1025.49
2024-05-09T04:05:00.004Z,1025.48
2024-05-09T04:05:58.685Z,1025.47
2024-05-09T04:07:01.213Z,1025.45
2024-05-09T04:07:59.972Z,1025.44
2024-05-09T04:08:59.691Z,1025.38
2024-05-09T04:10:01.160Z,1025.42
2024-05-09T04:10:59.954Z,1025.44
2024-05-09T04:11:58.846Z,1025.43
2024-05-09T04:12:59.733Z,1025.37
2024-05-09T04:14:01.269Z,1025.4
2024-05-09T04:14:59.950Z,1025.36
2024-05-09T04:15:59.007Z,1025.42
2024-05-09T04:16:59.831Z,1025.42
2024-05-09T04:18:02.143Z,1025.46
2024-05-09T04:19:01.373Z,1025.42
2024-05-09T04:20:00.397Z,1025.47
2024-05-09T04:20:59.262Z,1025.43
2024-05-09T04:21:59.930Z,1025.42
2024-05-09T04:23:01.259Z,1025.39
2024-05-09T04:24:00.059Z,1025.41
2024-05-09T04:24:58.796Z,1025.41
2024-05-09T04:26:01.276Z,1025.41
2024-05-09T04:27:00.127Z,1025.39
2024-05-09T04:27:58.808Z,1025.44
2024-05-09T04:29:01.762Z,1025.45
2024-05-09T04:30:01.293Z,1025.43
2024-05-09T04:31:00.067Z,1025.45
2024-05-09T04:31:58.852Z,1025.48
2024-05-09T04:32:59.807Z,1025.47
2024-05-09T04:33:58.777Z,1025.5
2024-05-09T04:35:01.258Z,1025.49
2024-05-09T04:36:00.098Z,1025.54
2024-05-09T04:36:58.767Z,1025.51
2024-05-09T04:38:01.380Z,1025.48
2024-05-09T04:39:00.093Z,1025.55
2024-05-09T04:39:58.767Z,1025.59
2024-05-09T04:41:01.229Z,1025.56
2024-05-09T04:41:59.918Z,1025.62
2024-05-09T04:43:01.244Z,1025.6
2024-05-09T04:44:00.012Z,1025.64
2024-05-09T04:44:58.943Z,1025.64
2024-05-09T04:45:59.639Z,1025.61
2024-05-09T04:47:01.263Z,1025.62
2024-05-09T04:48:00.467Z,1025.63
2024-05-09T04:48:59.627Z,1025.6
2024-05-09T04:50:01.255Z,1025.63
2024-05-09T04:51:01.223Z,1025.64
2024-05-09T04:52:01.218Z,1025.66
2024-05-09T04:53:00.036Z,1025.65
2024-05-09T04:54:01.638Z,1025.67
2024-05-09T04:54:59.710Z,1025.67
2024-05-09T04:56:01.319Z,1025.69
2024-05-09T04:57:00.102Z,1025.69
2024-05-09T04:57:58.827Z,1025.71
2024-05-09T04:59:03.616Z,1025.7
2024-05-09T05:00:01.185Z,1025.69
2024-05-09T05:00:59.963Z,1025.72
2024-05-09T05:01:58.831Z,1025.69
2024-05-09T05:03:01.464Z,1025.73
2024-05-09T05:04:03.103Z,1025.73
2024-05-09T05:05:01.339Z,1025.71
2024-05-09T05:06:00.112Z,1025.7
2024-05-09T05:07:02.147Z,1025.76
2024-05-09T05:08:01.222Z,1025.74
2024-05-09T05:09:05.664Z,1025.76
2024-05-09T05:09:59.803Z,1025.77
2024-05-09T05:11:01.253Z,1025.81
2024-05-09T05:11:59.863Z,1025.78
2024-05-09T05:12:58.702Z,1025.81
2024-05-09T05:14:09.934Z,1025.78
2024-05-09T05:15:01.179Z,1025.77
2024-05-09T05:15:59.780Z,1025.8
2024-05-09T05:17:01.262Z,1025.8
2024-05-09T05:18:00.180Z,1025.82
2024-05-09T05:19:13.509Z,1025.82
2024-05-09T05:20:00.081Z,1025.82
2024-05-09T05:20:59.057Z,1025.85
2024-05-09T05:21:59.961Z,1025.88
2024-05-09T05:22:58.677Z,1025.88
2024-05-09T05:24:15.632Z,1025.85
2024-05-09T05:25:01.154Z,1025.91
2024-05-09T05:25:59.957Z,1025.9
2024-05-09T05:26:58.694Z,1025.89
2024-05-09T05:28:01.269Z,1025.96
2024-05-09T05:28:59.980Z,1025.91
2024-05-09T05:29:58.719Z,1025.9
2024-05-09T05:31:01.366Z,1025.93
2024-05-09T05:32:00.278Z,1025.92
2024-05-09T05:32:59.049Z,1025.9
2024-05-09T05:33:59.894Z,1025.92
2024-05-09T05:34:58.706Z,1025.9
2024-05-09T05:36:01.189Z,1025.92
2024-05-09T05:37:00.154Z,1025.93
2024-05-09T05:37:58.957Z,1025.89
2024-05-09T05:38:59.630Z,1025.94
2024-05-09T05:40:01.238Z,1025.98
2024-05-09T05:40:59.994Z,1025.93
2024-05-09T05:41:58.708Z,1025.96
2024-05-09T05:43:01.258Z,1025.96
2024-05-09T05:43:59.981Z,1025.95
2024-05-09T05:44:59.010Z,1025.97
2024-05-09T05:45:59.750Z,1025.99
2024-05-09T05:47:01.414Z,1025.94
2024-05-09T05:48:00.508Z,1025.91
2024-05-09T05:48:59.513Z,1025.9
2024-05-09T05:50:01.380Z,1025.92
2024-05-09T05:51:04.180Z,1025.89
2024-05-09T05:52:01.214Z,1025.9
2024-05-09T05:52:59.987Z,1025.87
2024-05-09T05:53:58.697Z,1025.87
2024-05-09T05:55:01.178Z,1025.9
2024-05-09T05:56:00.004Z,1025.84
2024-05-09T05:56:58.809Z,1025.89
2024-05-09T05:58:01.188Z,1025.86
2024-05-09T05:58:59.885Z,1025.82
2024-05-09T06:00:04.140Z,1025.81
2024-05-09T06:01:01.318Z,1025.83
2024-05-09T06:02:00.098Z,1025.79
2024-05-09T06:02:59.379Z,1025.79
2024-05-09T06:04:00.255Z,1025.81
2024-05-09T06:04:59.115Z,1025.79
2024-05-09T06:06:00.042Z,1025.82
2024-05-09T06:06:58.855Z,1025.79
2024-05-09T06:08:01.269Z,1025.81
2024-05-09T06:08:59.986Z,1025.82
2024-05-09T06:09:58.664Z,1025.85
2024-05-09T06:11:01.363Z,1025.77
2024-05-09T06:12:00.283Z,1025.88
2024-05-09T06:12:59.102Z,1025.85
2024-05-09T06:13:59.878Z,1025.84
2024-05-09T06:15:01.163Z,1025.81
2024-05-09T06:15:59.827Z,1025.88
2024-05-09T06:17:01.225Z,1025.83
2024-05-09T06:18:00.262Z,1025.86
2024-05-09T06:18:59.341Z,1025.86
2024-05-09T06:20:01.191Z,1025.86
2024-05-09T06:21:00.011Z,1025.85
2024-05-09T06:21:58.763Z,1025.89
2024-05-09T06:23:03.246Z,1025.92
2024-05-09T06:24:02.574Z,1025.86
2024-05-09T06:25:01.182Z,1025.84
2024-05-09T06:25:59.980Z,1025.84
2024-05-09T06:26:58.629Z,1025.8
2024-05-09T06:28:01.279Z,1025.81
2024-05-09T06:29:00.106Z,1025.84
2024-05-09T06:29:58.810Z,1025.81
2024-05-09T06:31:01.172Z,1025.84
2024-05-09T06:32:00.351Z,1025.84
2024-05-09T06:32:59.364Z,1025.88
2024-05-09T06:34:00.310Z,1025.86
2024-05-09T06:34:59.393Z,1025.84
2024-05-09T06:36:00.164Z,1025.8
2024-05-09T06:36:58.956Z,1025.89
2024-05-09T06:37:59.701Z,1025.88
2024-05-09T06:39:01.237Z,1025.88
2024-05-09T06:40:01.168Z,1025.88
2024-05-09T06:40:59.966Z,1025.85
2024-05-09T06:41:58.681Z,1025.89
2024-05-09T06:43:01.248Z,1025.88
2024-05-09T06:43:59.979Z,1025.85
2024-05-09T06:45:00.220Z,1025.88
2024-05-09T06:45:59.007Z,1025.83
2024-05-09T06:47:00.240Z,1025.85
2024-05-09T06:47:59.491Z,1025.9
2024-05-09T06:49:01.490Z,1025.85
2024-05-09T06:50:03.536Z,1025.83
2024-05-09T06:51:01.298Z,1025.83
2024-05-09T06:51:59.973Z,1025.82
2024-05-09T06:52:58.776Z,1025.8
2024-05-09T06:54:01.218Z,1025.82
2024-05-09T06:55:02.826Z,1025.85
2024-05-09T06:55:59.971Z,1025.81
2024-05-09T06:56:58.737Z,1025.79
2024-05-09T06:58:01.196Z,1025.81
2024-05-09T06:59:00.064Z,1025.83
2024-05-09T07:00:05.066Z,1025.83
2024-05-09T07:01:00.058Z,1025.86
2024-05-09T07:01:58.798Z,1025.85
2024-05-09T07:03:04.755Z,1025.78
2024-05-09T07:04:01.483Z,1025.86
2024-05-09T07:05:06.408Z,1025.85
2024-05-09T07:06:00.105Z,1025.86
2024-05-09T07:06:58.744Z,1025.85
2024-05-09T07:08:01.238Z,1025.84
2024-05-09T07:08:59.921Z,1025.87
2024-05-09T07:10:14.962Z,1025.87
2024-05-09T07:11:01.372Z,1025.82
2024-05-09T07:12:01.340Z,1025.84
2024-05-09T07:13:00.127Z,1025.88
2024-05-09T07:13:58.861Z,1025.88
2024-05-09T07:15:13.205Z,1025.87
2024-05-09T07:16:01.227Z,1025.87
2024-05-09T07:17:00.066Z,1025.84
2024-05-09T07:17:59.087Z,1025.85
2024-05-09T07:19:00.018Z,1025.85
2024-05-09T07:20:22.898Z,1025.85
2024-05-09T07:20:59.778Z,1025.93
2024-05-09T07:22:01.202Z,1025.82
2024-05-09T07:22:59.916Z,1025.87
2024-05-09T07:24:02.658Z,1025.9
2024-05-09T07:25:15.930Z,1025.85
2024-05-09T07:26:01.288Z,1025.9
2024-05-09T07:26:59.991Z,1025.91
2024-05-09T07:27:58.679Z,1025.9
2024-05-09T07:29:01.270Z,1025.97
2024-05-09T07:29:59.915Z,1025.95
2024-05-09T07:31:01.268Z,1025.87
2024-05-09T07:31:59.989Z,1025.92
2024-05-09T07:32:59.030Z,1025.93
2024-05-09T07:33:59.905Z,1025.95
2024-05-09T07:34:58.753Z,1025.91
2024-05-09T07:36:01.182Z,1025.9
2024-05-09T07:36:59.864Z,1025.92
2024-05-09T07:38:01.351Z,1025.9
2024-05-09T07:39:00.051Z,1025.86
2024-05-09T07:39:58.700Z,1025.88
2024-05-09T07:41:01.267Z,1025.86
2024-05-09T07:42:01.187Z,1025.86
2024-05-09T07:43:00.005Z,1025.82
2024-05-09T07:43:58.809Z,1025.8
2024-05-09T07:45:21.069Z,1025.85
2024-05-09T07:46:37.851Z,1025.84
2024-05-09T07:50:35.818Z,1025.79
2024-05-09T07:51:48.172Z,1025.75
2024-05-09T07:53:07.617Z,1025.72
2024-05-09T07:53:22.111Z,1025.74
2024-05-09T07:53:35.766Z,1025.71
2024-05-09T07:54:01.308Z,1025.72
2024-05-09T07:55:01.585Z,1025.73
2024-05-09T07:56:01.544Z,1025.67
2024-05-09T07:57:01.277Z,1025.73
2024-05-09T07:58:00.052Z,1025.68
2024-05-09T07:58:58.818Z,1025.7
2024-05-09T08:00:01.213Z,1025.7
2024-05-09T08:01:00.017Z,1025.66
2024-05-09T08:01:58.932Z,1025.69
2024-05-09T08:02:59.756Z,1025.57
2024-05-09T08:04:01.288Z,1025.62
2024-05-09T08:05:00.155Z,1025.61
2024-05-09T08:05:59.041Z,1025.63
2024-05-09T08:06:59.865Z,1025.61
2024-05-09T08:08:01.247Z,1025.66
2024-05-09T08:09:05.142Z,1025.63
2024-05-09T08:09:59.808Z,1025.62
2024-05-09T08:11:01.188Z,1025.63
2024-05-09T08:11:59.825Z,1025.64
2024-05-09T08:13:01.322Z,1025.69
2024-05-09T08:14:00.008Z,1025.62
2024-05-09T08:14:58.681Z,1025.65
2024-05-09T08:16:01.344Z,1025.61
2024-05-09T08:17:00.126Z,1025.65
2024-05-09T08:17:59.374Z,1025.67
2024-05-09T08:19:00.401Z,1025.6
2024-05-09T08:19:59.335Z,1025.65
2024-05-09T08:21:00.043Z,1025.62
2024-05-09T08:21:58.729Z,1025.66
2024-05-09T08:23:01.247Z,1025.66
2024-05-09T08:23:59.982Z,1025.65
2024-05-09T08:24:58.796Z,1025.59
2024-05-09T08:26:01.221Z,1025.63
2024-05-09T08:26:59.900Z,1025.6
2024-05-09T08:28:01.350Z,1025.66
2024-05-09T08:29:01.182Z,1025.59
2024-05-09T08:29:59.924Z,1025.6
2024-05-09T08:30:58.827Z,1025.58
2024-05-09T08:32:00.029Z,1025.54
2024-05-09T08:32:59.412Z,1025.53
2024-05-09T08:34:00.364Z,1025.53
2024-05-09T08:34:59.184Z,1025.56
2024-05-09T08:35:59.969Z,1025.57
2024-05-09T08:37:03.741Z,1025.55
2024-05-09T08:38:01.348Z,1025.53
2024-05-09T08:39:00.195Z,1025.51
2024-05-09T08:39:58.964Z,1025.51
2024-05-09T08:40:59.683Z,1025.53
2024-05-09T08:42:01.249Z,1025.54
2024-05-09T08:43:02.452Z,1025.56
2024-05-09T08:44:00.002Z,1025.57
2024-05-09T08:44:58.853Z,1025.59
2024-05-09T08:46:01.280Z,1025.6
2024-05-09T08:47:00.208Z,1025.61
2024-05-09T08:47:59.081Z,1025.64
2024-05-09T08:49:00.069Z,1025.58
2024-05-09T08:49:59.023Z,1025.62
2024-05-09T08:51:04.532Z,1025.63
2024-05-09T08:52:00.191Z,1025.62
2024-05-09T08:52:58.936Z,1025.58
2024-05-09T08:53:59.765Z,1025.54
2024-05-09T08:55:01.246Z,1025.54
2024-05-09T08:56:06.388Z,1025.57
2024-05-09T08:56:59.982Z,1025.58
2024-05-09T08:57:58.725Z,1025.57
2024-05-09T08:59:01.186Z,1025.54
2024-05-09T08:59:59.935Z,1025.55
2024-05-09T09:01:08.972Z,1025.54
2024-05-09T09:02:00.076Z,1025.51
2024-05-09T09:02:58.899Z,1025.51
2024-05-09T09:03:59.958Z,1025.51
2024-05-09T09:04:59.030Z,1025.57
2024-05-09T09:06:10.865Z,1025.52
2024-05-09T09:07:00.389Z,1025.49
2024-05-09T09:08:01.218Z,1025.44
2024-05-09T09:08:59.983Z,1025.49
2024-05-09T09:09:58.811Z,1025.48
2024-05-09T09:11:14.086Z,1025.52
2024-05-09T09:11:59.916Z,1025.57
2024-05-09T09:12:58.764Z,1025.56
2024-05-09T09:14:01.172Z,1025.5
2024-05-09T09:15:00.166Z,1025.49
2024-05-09T09:15:59.517Z,1025.5
2024-05-09T09:17:01.431Z,1025.52
2024-05-09T09:18:00.741Z,1025.51
2024-05-09T09:18:59.884Z,1025.51
2024-05-09T09:19:58.784Z,1025.49
2024-05-09T09:21:01.168Z,1025.54
2024-05-09T09:22:00.051Z,1025.54
2024-05-09T09:22:58.773Z,1025.53
2024-05-09T09:24:01.232Z,1025.55
2024-05-09T09:24:59.898Z,1025.53
2024-05-09T09:25:58.668Z,1025.51
2024-05-09T09:27:01.221Z,1025.54
2024-05-09T09:28:00.116Z,1025.47
2024-05-09T09:28:58.978Z,1025.47
2024-05-09T09:29:59.703Z,1025.45
2024-05-09T09:31:01.272Z,1025.43
2024-05-09T09:32:00.057Z,1025.41
2024-05-09T09:32:58.845Z,1025.4
2024-05-09T09:33:59.878Z,1025.4
2024-05-09T09:34:58.824Z,1025.42
2024-05-09T09:36:01.953Z,1025.41
2024-05-09T09:37:01.224Z,1025.45
2024-05-09T09:37:59.997Z,1025.46
2024-05-09T09:38:58.684Z,1025.44
2024-05-09T09:40:01.236Z,1025.45
2024-05-09T09:41:00.225Z,1025.47
2024-05-09T09:41:59.072Z,1025.45
2024-05-09T09:42:59.755Z,1025.45
2024-05-09T09:44:01.209Z,1025.46
2024-05-09T09:45:04.886Z,1025.41
2024-05-09T09:46:00.260Z,1025.46
2024-05-09T09:46:59.066Z,1025.44
2024-05-09T09:47:59.962Z,1025.42
2024-05-09T09:48:58.900Z,1025.42
2024-05-09T09:49:59.995Z,1025.39
2024-05-09T09:50:58.737Z,1025.47
2024-05-09T09:52:01.721Z,1025.41
2024-05-09T09:53:01.155Z,1025.44
2024-05-09T09:53:59.858Z,1025.44
2024-05-09T09:55:01.215Z,1025.42
2024-05-09T09:56:00.009Z,1025.43
2024-05-09T09:56:58.762Z,1025.48
2024-05-09T09:58:01.235Z,1025.43
2024-05-09T09:59:01.195Z,1025.41
2024-05-09T10:00:01.228Z,1025.37
2024-05-09T10:01:00.046Z,1025.42
2024-05-09T10:01:59.028Z,1025.37
2024-05-09T10:03:00.019Z,1025.36
2024-05-09T10:03:59.072Z,1025.37
2024-05-09T10:05:00.013Z,1025.36
2024-05-09T10:05:58.887Z,1025.31
2024-05-09T10:06:59.656Z,1025.33
2024-05-09T10:08:01.237Z,1025.33
2024-05-09T10:08:59.976Z,1025.39
2024-05-09T10:09:58.667Z,1025.36
2024-05-09T10:11:01.350Z,1025.41
2024-05-09T10:12:00.657Z,1025.39
2024-05-09T10:12:59.760Z,1025.38
2024-05-09T10:14:01.254Z,1025.41
2024-05-09T10:15:00.010Z,1025.41
2024-05-09T10:15:58.834Z,1025.35
2024-05-09T10:17:01.251Z,1025.34
2024-05-09T10:18:00.133Z,1025.34
2024-05-09T10:18:59.043Z,1025.26
2024-05-09T10:19:59.885Z,1025.22
2024-05-09T10:20:58.708Z,1025.21
2024-05-09T10:22:01.332Z,1025.23
2024-05-09T10:23:00.025Z,1025.23
2024-05-09T10:23:58.720Z,1025.2
2024-05-09T10:25:02.770Z,1025.19
2024-05-09T10:26:01.305Z,1025.21
2024-05-09T10:27:00.072Z,1025.16
2024-05-09T10:27:58.925Z,1025.18
2024-05-09T10:28:59.786Z,1025.21
2024-05-09T10:30:01.258Z,1025.21
2024-05-09T10:31:00.020Z,1025.2
2024-05-09T10:31:58.783Z,1025.24
2024-05-09T10:33:01.349Z,1025.22
2024-05-09T10:34:00.506Z,1025.22
2024-05-09T10:34:59.576Z,1025.24
2024-05-09T10:36:01.154Z,1025.25
2024-05-09T10:37:02.822Z,1025.19
2024-05-09T10:38:01.211Z,1025.18
2024-05-09T10:38:59.881Z,1025.22
2024-05-09T10:40:01.237Z,1025.17
2024-05-09T10:40:59.989Z,1025.19
2024-05-09T10:42:04.123Z,1025.12
2024-05-09T10:43:02.554Z,1025.13
2024-05-09T10:44:01.244Z,1025.13
2024-05-09T10:44:59.996Z,1025.15
2024-05-09T10:45:58.690Z,1025.17
2024-05-09T10:47:06.479Z,1025.16
2024-05-09T10:48:01.499Z,1025.13
2024-05-09T10:49:03.323Z,1025.14
2024-05-09T10:50:01.268Z,1025.11
2024-05-09T10:51:00.031Z,1025.08
2024-05-09T10:52:09.192Z,1025.07
2024-05-09T10:53:00.028Z,1025.02
2024-05-09T10:53:58.731Z,1025
2024-05-09T10:55:03.076Z,1024.95
2024-05-09T10:56:01.294Z,1024.95
2024-05-09T10:57:10.846Z,1024.94
2024-05-09T10:57:59.835Z,1024.94
2024-05-09T10:59:01.180Z,1024.93
2024-05-09T10:59:59.821Z,1024.95
2024-05-09T11:01:04.333Z,1024.98
2024-05-09T11:02:13.184Z,1024.98
2024-05-09T11:03:01.253Z,1024.99
2024-05-09T11:04:00.182Z,1024.96
2024-05-09T11:04:59.271Z,1024.95
2024-05-09T11:06:00.072Z,1024.94
2024-05-09T11:07:14.316Z,1024.92
2024-05-09T11:07:59.744Z,1024.91
2024-05-09T11:09:01.341Z,1024.9
2024-05-09T11:10:00.000Z,1024.9
2024-05-09T11:10:58.770Z,1024.89
2024-05-09T11:12:01.316Z,1024.87
2024-05-09T11:13:00.142Z,1024.89
2024-05-09T11:13:59.083Z,1024.91
2024-05-09T11:15:01.220Z,1024.91
2024-05-09T11:16:00.404Z,1024.89
2024-05-09T11:16:59.196Z,1024.91
2024-05-09T11:18:00.013Z,1024.85
2024-05-09T11:18:59.279Z,1024.88
2024-05-09T11:20:00.277Z,1024.91
2024-05-09T11:20:59.105Z,1024.89
2024-05-09T11:21:59.880Z,1024.93
2024-05-09T11:23:01.200Z,1024.9
2024-05-09T11:24:01.223Z,1024.84
2024-05-09T11:25:01.271Z,1024.81
2024-05-09T11:25:59.809Z,1024.85
2024-05-09T11:27:01.186Z,1024.84
2024-05-09T11:27:59.914Z,1024.83
2024-05-09T11:28:58.605Z,1024.8
2024-05-09T11:30:01.177Z,1024.87
2024-05-09T11:31:00.130Z,1024.78
2024-05-09T11:31:58.840Z,1024.79
2024-05-09T11:33:01.588Z,1024.76
2024-05-09T11:34:00.124Z,1024.65
2024-05-09T11:34:58.898Z,1024.75
2024-05-09T11:36:01.194Z,1024.69
2024-05-09T11:36:59.969Z,1024.68
2024-05-09T11:37:58.720Z,1024.73
2024-05-09T11:39:01.168Z,1024.71
2024-05-09T11:39:59.898Z,1024.77
2024-05-09T11:40:59.028Z,1024.71
2024-05-09T11:41:59.806Z,1024.72
2024-05-09T11:43:01.543Z,1024.71
2024-05-09T11:44:01.165Z,1024.7
2024-05-09T11:44:59.877Z,1024.73
2024-05-09T11:46:01.377Z,1024.69
2024-05-09T11:47:00.042Z,1024.7
2024-05-09T11:47:59.298Z,1024.72
2024-05-09T11:49:00.275Z,1024.66
2024-05-09T11:49:59.743Z,1024.61
2024-05-09T11:51:02.075Z,1024.55
2024-05-09T11:52:00.167Z,1024.56
2024-05-09T11:52:58.911Z,1024.56
2024-05-09T11:54:01.169Z,1024.55
2024-05-09T11:54:59.871Z,1024.54
2024-05-09T11:56:01.235Z,1024.57
2024-05-09T11:56:59.981Z,1024.55
2024-05-09T11:57:58.957Z,1024.5
2024-05-09T11:58:59.667Z,1024.53
2024-05-09T12:00:01.201Z,1024.54
2024-05-09T12:00:59.991Z,1024.54
2024-05-09T12:01:58.839Z,1024.57
2024-05-09T12:03:01.291Z,1024.54
2024-05-09T12:04:01.621Z,1024.53
2024-05-09T12:05:01.326Z,1024.48
2024-05-09T12:06:00.200Z,1024.51
2024-05-09T12:06:59.253Z,1024.47
2024-05-09T12:07:59.926Z,1024.47
2024-05-09T12:08:58.613Z,1024.46